createdAt,value
2024-03-24T00:00:39.989Z,99780.68
2024-03-24T00:05:45.555Z,99774.49
2024-03-24T00:10:51.507Z,99768.08
2024-03-24T00:15:57.301Z,99774.49
2024-03-24T00:21:03.075Z,99765.00
2024-03-24T00:26:08.741Z,99763.61
2024-03-24T00:31:15.233Z,99754.59
2024-03-24T00:36:21.005Z,99749.55
2024-03-24T00:41:27.283Z,99750.14
2024-03-24T00:46:33.371Z,99744.28
2024-03-24T00:51:38.925Z,99736.82
2024-03-24T00:56:45.106Z,99727.34
2024-03-24T01:01:50.654Z,99727.89
2024-03-24T01:06:56.220Z,99722.66
2024-03-24T01:12:02.009Z,99717.23
2024-03-24T01:17:07.759Z,99705.75
2024-03-24T01:22:14.872Z,99694.40
2024-03-24T01:27:20.438Z,99688.91
2024-03-24T01:32:26.100Z,99679.45
2024-03-24T01:37:31.771Z,99672.55
2024-03-24T01:42:37.327Z,99676.22
2024-03-24T01:47:43.012Z,99673.36
2024-03-24T01:52:48.829Z,99662.99
2024-03-24T01:57:54.444Z,99662.69
2024-03-24T02:03:00.328Z,99648.25
2024-03-24T02:08:06.499Z,99652.31
2024-03-24T02:13:12.192Z,99651.11
2024-03-24T02:18:17.931Z,99650.72
2024-03-24T02:23:23.595Z,99646.94
2024-03-24T02:28:29.253Z,99642.52
2024-03-24T02:33:34.923Z,99639.14
2024-03-24T02:38:40.514Z,99635.74
2024-03-24T02:43:46.172Z,99630.59
2024-03-24T02:48:51.943Z,99624.58
2024-03-24T02:53:57.606Z,99617.19
2024-03-24T02:59:03.285Z,99624.58
2024-03-24T03:04:09.984Z,99610.60
2024-03-24T03:09:17.457Z,99589.47
2024-03-24T03:14:23.353Z,99593.02
2024-03-24T03:19:29.198Z,99583.69
2024-03-24T03:24:35.101Z,99585.12
2024-03-24T03:29:40.738Z,99584.78
2024-03-24T03:34:46.321Z,99592.68
2024-03-24T03:39:51.888Z,99581.74
2024-03-24T03:44:58.470Z,99577.05
2024-03-24T03:50:04.248Z,99567.83
2024-03-24T03:55:12.021Z,99567.31
2024-03-24T04:00:19.394Z,99554.20
2024-03-24T04:05:25.544Z,99548.81
2024-03-24T04:10:31.208Z,99551.45
2024-03-24T04:15:39.910Z,99557.06
2024-03-24T04:20:45.608Z,99549.44
2024-03-24T04:25:54.159Z,99550.41
2024-03-24T04:31:02.049Z,99546.41
2024-03-24T04:36:09.177Z,99543.03
2024-03-24T04:41:15.138Z,99530.31
2024-03-24T04:46:20.842Z,99529.00
2024-03-24T04:51:27.394Z,99529.22
2024-03-24T04:56:33.292Z,99523.22
2024-03-24T05:01:38.926Z,99532.35
2024-03-24T05:06:44.613Z,99532.56
2024-03-24T05:11:50.261Z,99528.08
2024-03-24T05:16:55.989Z,99531.52
2024-03-24T05:22:01.672Z,99534.73
2024-03-24T05:27:07.368Z,99533.00
2024-03-24T05:32:15.244Z,99520.44
2024-03-24T05:37:20.913Z,99523.92
2024-03-24T05:42:26.641Z,99521.70
2024-03-24T05:47:32.858Z,99529.77
2024-03-24T05:52:39.214Z,99524.66
2024-03-24T05:57:44.976Z,99530.39
2024-03-24T06:02:50.518Z,99538.80
2024-03-24T06:07:56.235Z,99532.27
2024-03-24T06:13:01.792Z,99527.99
2024-03-24T06:18:08.904Z,99522.81
2024-03-24T06:23:14.623Z,99520.81
2024-03-24T06:28:20.975Z,99535.66
2024-03-24T06:33:27.445Z,99524.00
2024-03-24T06:38:33.155Z,99520.53
2024-03-24T06:43:40.386Z,99517.58
2024-03-24T06:48:46.028Z,99512.42
2024-03-24T06:53:51.628Z,99523.91
2024-03-24T06:58:57.188Z,99520.17
2024-03-24T07:04:02.826Z,99518.80
2024-03-24T07:09:08.397Z,99523.33
2024-03-24T07:14:14.173Z,99514.13
2024-03-24T07:19:20.995Z,99510.20
2024-03-24T07:24:26.733Z,99518.42
2024-03-24T07:29:32.522Z,99518.97
2024-03-24T07:34:40.304Z,99516.33
2024-03-24T07:39:45.886Z,99511.26
2024-03-24T07:44:51.447Z,99507.20
2024-03-24T07:49:59.770Z,99506.21
2024-03-24T07:55:08.645Z,99508.03
2024-03-24T08:00:15.531Z,99496.55
2024-03-24T08:05:21.300Z,99498.09
2024-03-24T08:10:27.047Z,99488.33
2024-03-24T08:15:32.603Z,99482.59
2024-03-24T08:20:38.280Z,99474.92
2024-03-24T08:25:44.056Z,99471.06
2024-03-24T08:30:49.618Z,99470.31
2024-03-24T08:35:55.480Z,99470.81
2024-03-24T08:41:01.153Z,99475.77
2024-03-24T08:46:07.461Z,99478.11
2024-03-24T08:51:13.095Z,99468.55
2024-03-24T08:56:18.672Z,99470.67
2024-03-24T09:01:24.525Z,99476.41
2024-03-24T09:06:34.559Z,99468.85
2024-03-24T09:11:40.171Z,99467.61
2024-03-24T09:16:45.733Z,99469.51
2024-03-24T09:21:51.326Z,99450.09
2024-03-24T09:26:58.612Z,99460.63
2024-03-24T09:32:04.274Z,99455.70
2024-03-24T09:37:10.042Z,99455.29
2024-03-24T09:42:17.152Z,99450.55
2024-03-24T09:47:23.849Z,99450.39
2024-03-24T09:52:34.237Z,99456.17
2024-03-24T09:57:41.011Z,99437.70
2024-03-24T10:02:47.298Z,99430.64
2024-03-24T10:07:52.951Z,99432.39
2024-03-24T10:12:59.426Z,99432.41
2024-03-24T10:18:10.882Z,99424.46
2024-03-24T10:23:16.541Z,99426.09
2024-03-24T10:28:22.210Z,99413.41
2024-03-24T10:33:27.847Z,99419.13
2024-03-24T10:38:33.519Z,99407.33
2024-03-24T10:43:40.036Z,99405.53
2024-03-24T10:48:46.153Z,99410.43
2024-03-24T10:53:52.973Z,99407.23
2024-03-24T10:59:05.249Z,99404.72
2024-03-24T11:04:11.886Z,99401.86
2024-03-24T11:09:18.068Z,99409.23
2024-03-24T11:14:25.684Z,99398.31
2024-03-24T11:19:31.844Z,99399.57
2024-03-24T11:24:37.522Z,99385.97
2024-03-24T11:29:54.022Z,99395.75
2024-03-24T11:35:00.243Z,99395.48
2024-03-24T11:40:07.188Z,99404.88
2024-03-24T11:45:33.301Z,99404.95
2024-03-24T11:50:40.899Z,99408.22
2024-03-24T11:55:47.662Z,99399.44
2024-03-24T12:00:53.689Z,99404.33
2024-03-24T12:05:59.444Z,99418.38
2024-03-24T12:11:05.785Z,99409.24
2024-03-24T12:16:17.737Z,99412.12
2024-03-24T12:21:25.035Z,99411.50
2024-03-24T12:26:30.821Z,99402.27
2024-03-24T12:31:36.595Z,99404.05
2024-03-24T12:36:42.540Z,99238.33
2024-03-24T12:41:48.641Z,99397.78
2024-03-24T12:46:54.394Z,99395.18
2024-03-24T12:52:00.041Z,99380.39
2024-03-24T12:57:06.595Z,99375.44
2024-03-24T13:02:12.503Z,99372.92
2024-03-24T13:07:20.132Z,99373.88
2024-03-24T13:12:26.402Z,99373.72
2024-03-24T13:17:34.560Z,99374.08
2024-03-24T13:22:40.187Z,99376.63
2024-03-24T13:27:51.290Z,99371.12
2024-03-24T13:32:56.961Z,99371.41
2024-03-24T13:38:36.003Z,99362.10
2024-03-24T13:43:59.592Z,99358.61
2024-03-24T13:49:05.766Z,99355.44
2024-03-24T13:54:12.355Z,99348.67
2024-03-24T13:59:18.033Z,99349.30
2024-03-24T14:04:24.144Z,99346.39
2024-03-24T14:09:29.773Z,99339.83
2024-03-24T14:15:11.692Z,99336.19
2024-03-24T14:20:19.341Z,99337.50
2024-03-24T14:25:31.021Z,99326.22
2024-03-24T14:30:36.680Z,99326.95
2024-03-24T14:35:45.315Z,99324.34
2024-03-24T14:41:13.713Z,99313.22
2024-03-24T14:46:32.236Z,99311.94
2024-03-24T14:51:37.848Z,99303.28
2024-03-24T14:56:43.440Z,99299.66
2024-03-24T15:01:49.275Z,99292.48
2024-03-24T15:06:55.102Z,99284.23
2024-03-24T15:12:01.367Z,99287.88
2024-03-24T15:17:07.670Z,99285.91
2024-03-24T15:22:13.812Z,99280.21
2024-03-24T15:27:19.594Z,99283.25
2024-03-24T15:32:25.161Z,99272.62
2024-03-24T15:37:30.926Z,99266.58
2024-03-24T15:42:37.595Z,99264.19
2024-03-24T15:47:43.368Z,99262.20
2024-03-24T15:52:49.038Z,99258.12
2024-03-24T15:58:06.524Z,99253.52
2024-03-24T16:03:12.343Z,99251.16
2024-03-24T16:08:19.440Z,99249.39
2024-03-24T16:13:28.120Z,99253.84
2024-03-24T16:18:33.772Z,99242.33
2024-03-24T16:23:39.337Z,99244.54
2024-03-24T16:28:44.904Z,99248.91
2024-03-24T16:33:51.283Z,99256.17
2024-03-24T16:38:56.824Z,99251.23
2024-03-24T16:44:02.521Z,99255.89
2024-03-24T16:49:09.819Z,99259.23
2024-03-24T16:54:15.709Z,99254.87
2024-03-24T16:59:23.008Z,99250.10
2024-03-24T17:04:29.034Z,99250.48
2024-03-24T17:09:34.722Z,99247.75
2024-03-24T17:14:40.281Z,99247.58
2024-03-24T17:19:46.151Z,99253.90
2024-03-24T17:24:51.981Z,99254.30
2024-03-24T17:29:57.586Z,99261.34
2024-03-24T17:35:03.986Z,99254.77
2024-03-24T17:40:12.187Z,99259.44
2024-03-24T17:45:17.972Z,99254.97
2024-03-24T17:50:24.527Z,99256.03
2024-03-24T17:55:31.770Z,99250.62
2024-03-24T18:00:38.065Z,99245.89
2024-03-24T18:05:44.119Z,99256.60
2024-03-24T18:10:49.832Z,99253.89
2024-03-24T18:15:56.093Z,99251.23
2024-03-24T18:21:03.280Z,99256.98
2024-03-24T18:26:09.861Z,99259.11
2024-03-24T18:31:16.052Z,99266.31
2024-03-24T18:36:21.720Z,99259.67
2024-03-24T18:41:29.028Z,99254.91
2024-03-24T18:46:34.687Z,99259.05
2024-03-24T18:51:40.353Z,99251.31
2024-03-24T18:56:45.920Z,99256.53
2024-03-24T19:01:51.584Z,99250.20
2024-03-24T19:06:57.252Z,99241.52
2024-03-24T19:12:03.043Z,99238.44
2024-03-24T19:17:08.824Z,99237.31
2024-03-24T19:22:14.976Z,99231.28
2024-03-24T19:27:20.967Z,99229.00
2024-03-24T19:32:26.835Z,99219.53
2024-03-24T19:37:33.107Z,99211.66
2024-03-24T19:42:39.691Z,99223.06
2024-03-24T19:47:46.835Z,99223.06
2024-03-24T19:52:52.779Z,99228.20
2024-03-24T19:58:00.274Z,99226.48
2024-03-24T20:03:06.989Z,99222.22
2024-03-24T20:08:12.562Z,99220.33
2024-03-24T20:13:19.218Z,99218.22
2024-03-24T20:18:26.319Z,99211.88
2024-03-24T20:23:32.267Z,99214.94
2024-03-24T20:28:38.074Z,99213.52
2024-03-24T20:33:44.144Z,99213.42
2024-03-24T20:38:49.864Z,99207.92
2024-03-24T20:43:56.146Z,99203.66
2024-03-24T20:49:01.777Z,99196.17
2024-03-24T20:54:07.418Z,99191.72
2024-03-24T20:59:13.203Z,99188.79
2024-03-24T21:04:18.957Z,99185.86
2024-03-24T21:09:24.626Z,99188.80
2024-03-24T21:14:32.049Z,99179.89
2024-03-24T21:19:37.984Z,99173.66
2024-03-24T21:24:43.828Z,99184.17
2024-03-24T21:29:50.280Z,99177.34
2024-03-24T21:34:59.421Z,99173.83
2024-03-24T21:40:23.202Z,99176.02
2024-03-24T21:45:29.813Z,99176.08
2024-03-24T21:50:35.699Z,99175.22
2024-03-24T21:55:41.502Z,99173.61
2024-03-24T22:00:47.098Z,99167.14
2024-03-24T22:05:52.785Z,99169.54
2024-03-24T22:10:58.641Z,99018.95
2024-03-24T22:16:04.459Z,99171.97
2024-03-24T22:21:10.791Z,99177.27
2024-03-24T22:26:20.148Z,99179.92
2024-03-24T22:31:25.710Z,99174.28
2024-03-24T22:36:31.278Z,99168.88
2024-03-24T22:41:37.367Z,99174.78
2024-03-24T22:46:43.119Z,99169.10
2024-03-24T22:51:48.793Z,99160.95
2024-03-24T22:56:54.474Z,99167.27
2024-03-24T23:02:00.130Z,99171.16
2024-03-24T23:07:05.899Z,99174.52
2024-03-24T23:12:11.558Z,99175.19
2024-03-24T23:17:17.512Z,99171.02
2024-03-24T23:22:23.210Z,99169.69
2024-03-24T23:27:28.872Z,99179.83
2024-03-24T23:32:34.534Z,99179.92
2024-03-24T23:37:40.713Z,99179.82
2024-03-24T23:42:46.382Z,99176.03
2024-03-24T23:47:54.255Z,99186.13
2024-03-24T23:52:59.882Z,99181.77
2024-03-24T23:58:05.743Z,99186.68
